Drummond Island, MI (49726)

5:00 PM EST on December 09, 2016 (GMT -0500)
Potagannissing Bay Front | | Change Station
Active Advisory: Lake Effect Snow Advisory

Elev 587 ft 46.06 °N, 83.67 °W | Updated 5 seconds ago

Overcast
Overcast
21.0 °F
Feels Like 13 °F
N
6.0
Wind Variable Wind from WNW
Gusts 7.0 mph

Today
High -- | Low -- °F
--% Chance of Precip.
Yesterday
High -- | Low -- °F
Precip. -- in
Pressure 30.32 in
Visibility 10.0 miles
Clouds Scattered Clouds 2800 ft
Mostly Cloudy 4100 ft
Overcast 5500 ft
Windchill 13 °F
Dew Point 13 °F
Humidity 70%
Rainfall 0.00 in
Snow Depth Not available.
8:05 AM 4:49 PM
Waxing Gibbous, 77% visible
METAR KDRM 092155Z AUTO 00000KT 10SM SCT028 BKN041 OVC055 M06/M12 A3032 RMK AO2 T10651121
Pressure 30.32 in
Visibility 10.0 miles
Clouds Scattered Clouds 2800 ft
Mostly Cloudy 4100 ft
Overcast 5500 ft
Windchill 13 °F
Dew Point 13 °F
Humidity 70%
Rainfall 0.00 in
Snow Depth Not available.
8:05 AM 4:49 PM
Waxing Gibbous, 77% visible
METAR KDRM 092155Z AUTO 00000KT 10SM SCT028 BKN041 OVC055 M06/M12 A3032 RMK AO2 T10651121

10-Day Weather Forecast

Almanac

Astronomy

Dec. 09, 2016 Rise Set
Actual Time
Civil Twilight
Nautical Twilight
Astronomical Twilight
Moon
Length of Visible Light
Length of Day
Tomorrow will be .
, % of the Moon is Illuminated

Today's Extremes

State Highs State Lows

Community

WunderPhotos

Upload Photos

1,956,535 photos uploaded!

WunderBlog® & News

Nearby

Air Quality

  Air Quality AQ Index Pollutant
Not available.

Snow Depth

Station Depth Elevation

Earthquake Activity

City Distance Mag. Time & Date
Minimum magnitude displayed is 2.5.

Coastal Water Temperatures

Place Temperature

Stations

Nearby Weather Stations

Station Location Temp. Windchill Dew Point Humidity Wind Precip. Elev Updated Type
                   

Watches & Warnings

Lake Effect Snow Advisory
Issued: 2:15 PM EST Dec. 9, 2016 – National Weather Service

... Lake effect Snow Advisory now in effect until noon EST
Saturday...

* periods of lake effect snow showers will persist through
Saturday morning.

* The heaviest snowfall rates will occur across northwest sections
of Chippewa County... especially near Whitefish Point and
Paradise.

* Where snow showers persist... additional snow accumulation of 2
to 6 inches is expected... with locally higher amounts possible.

* Look for greatly reduced visibilities at times.

* Plan on difficult driving conditions.

Precautionary/preparedness actions...

A lake effect Snow Advisory Means Lake-effect snow is forecast
that will make travel difficult in some areas. Use caution when
traveling. For the latest Road conditions... go to the mdot
website at Michigan.Gov.